createdAt,value
2018-03-23T00:01:45.946Z,92382.66
2018-03-23T00:04:13.538Z,92362.62
2018-03-23T00:06:41.091Z,92344.17
2018-03-23T00:09:09.410Z,92343.77
2018-03-23T00:11:37.152Z,92346.63
2018-03-23T00:14:04.706Z,92348.65
2018-03-23T00:16:32.256Z,92341.69
2018-03-23T00:18:59.849Z,92325.33
2018-03-23T00:21:27.412Z,92313.81
2018-03-23T00:23:54.972Z,92308.09
2018-03-23T00:26:22.553Z,92316.25
2018-03-23T00:28:50.106Z,92313.39
2018-03-23T00:31:17.645Z,92330.59
2018-03-23T00:33:45.514Z,92305.25
2018-03-23T00:36:13.072Z,92315.92
2018-03-23T00:38:40.612Z,92293.42
2018-03-23T00:41:08.189Z,92287.23
2018-03-23T00:43:35.727Z,92278.20
2018-03-23T00:46:03.356Z,92269.98
2018-03-23T00:48:30.926Z,92259.69
2018-03-23T00:50:58.460Z,92246.09
2018-03-23T00:53:25.993Z,92236.61
2018-03-23T00:55:53.696Z,92230.03
2018-03-23T00:58:21.242Z,92225.02
2018-03-23T01:00:48.791Z,92232.33
2018-03-23T01:03:16.427Z,92226.16
2018-03-23T01:05:43.983Z,92231.83
2018-03-23T01:08:11.539Z,92232.14
2018-03-23T01:10:39.139Z,92226.78
2018-03-23T01:13:06.680Z,92222.18
2018-03-23T01:15:34.229Z,92221.73
2018-03-23T01:18:01.899Z,92227.85
2018-03-23T01:20:29.488Z,92217.57
2018-03-23T01:22:57.022Z,92215.01
2018-03-23T01:25:24.725Z,92195.27
2018-03-23T01:27:52.268Z,92198.78
2018-03-23T01:30:19.801Z,92206.53
2018-03-23T01:32:47.675Z,92203.63
2018-03-23T01:35:15.219Z,92211.04
2018-03-23T01:37:42.762Z,92211.83
2018-03-23T01:40:10.485Z,92208.58
2018-03-23T01:42:38.035Z,92210.22
2018-03-23T01:45:05.594Z,92208.24
2018-03-23T01:47:33.350Z,92195.64
2018-03-23T01:50:00.899Z,92215.39
2018-03-23T01:52:28.449Z,92201.45
2018-03-23T01:54:56.031Z,92193.70
2018-03-23T01:57:29.211Z,92190.31
2018-03-23T01:59:56.764Z,92174.73
2018-03-23T02:02:24.348Z,92194.82
2018-03-23T02:04:51.887Z,92176.59
2018-03-23T02:07:19.440Z,92190.25
2018-03-23T02:09:47.967Z,92177.30
2018-03-23T02:12:15.528Z,92158.66
2018-03-23T02:14:43.069Z,92152.62
2018-03-23T02:17:10.654Z,92164.16
2018-03-23T02:19:39.168Z,92159.23
2018-03-23T02:22:07.646Z,92168.28
2018-03-23T02:24:35.508Z,92171.14
2018-03-23T02:27:03.047Z,92179.77
2018-03-23T02:29:31.576Z,92174.39
2018-03-23T02:31:59.134Z,92179.68
2018-03-23T02:34:26.680Z,92177.70
2018-03-23T02:36:55.376Z,92173.13
2018-03-23T02:39:22.921Z,92178.77
2018-03-23T02:41:50.461Z,92181.66
2018-03-23T02:44:18.057Z,92186.99
2018-03-23T02:46:45.593Z,92185.63
2018-03-23T02:49:13.144Z,92180.69
2018-03-23T02:51:40.869Z,92194.17
2018-03-23T02:54:08.403Z,92192.53
2018-03-23T02:56:35.947Z,92187.17
2018-03-23T02:59:04.466Z,92188.81
2018-03-23T03:01:32.014Z,92192.47
2018-03-23T03:03:59.586Z,92184.65
2018-03-23T03:06:27.152Z,92182.13
2018-03-23T03:08:54.688Z,92185.47
2018-03-23T03:11:22.233Z,92172.33
2018-03-23T03:13:49.810Z,92172.77
2018-03-23T03:16:17.355Z,92173.08
2018-03-23T03:18:44.902Z,92161.19
2018-03-23T03:21:12.482Z,92156.27
2018-03-23T03:23:40.025Z,92144.46
2018-03-23T03:26:07.562Z,92142.48
2018-03-23T03:28:35.245Z,92139.98
2018-03-23T03:31:02.794Z,92137.91
2018-03-23T03:33:31.017Z,92137.91
2018-03-23T03:35:58.601Z,92135.11
2018-03-23T03:38:26.145Z,92147.50
2018-03-23T03:43:27.811Z,92136.47
2018-03-23T03:45:55.370Z,92144.22
2018-03-23T03:48:23.853Z,92131.08
2018-03-23T03:50:52.617Z,92133.91
2018-03-23T03:53:20.157Z,92128.52
2018-03-23T03:55:47.694Z,92130.53
2018-03-23T03:58:15.406Z,92137.59
2018-03-23T04:17:58.052Z,92109.38
2018-03-23T04:20:25.591Z,92118.79
2018-03-23T04:22:53.130Z,92116.47
2018-03-23T04:25:20.846Z,92112.75
2018-03-23T04:27:48.416Z,92112.27
2018-03-23T04:30:15.966Z,92115.92
2018-03-23T04:32:43.528Z,92110.56
2018-03-23T04:35:11.066Z,92105.13
2018-03-23T04:37:39.559Z,92109.86
2018-03-23T04:40:07.323Z,92105.66
2018-03-23T04:42:34.910Z,92098.12
2018-03-23T04:45:02.451Z,92100.09
2018-03-23T04:47:30.018Z,92092.84
2018-03-23T04:49:57.594Z,92087.75
2018-03-23T04:52:25.129Z,92089.23
2018-03-23T04:54:52.717Z,92084.05
2018-03-23T04:57:20.274Z,92097.24
2018-03-23T04:59:47.824Z,92088.76
2018-03-23T05:02:15.576Z,92101.22
2018-03-23T05:04:43.131Z,92106.73
2018-03-23T05:07:10.667Z,92102.58
2018-03-23T05:09:38.348Z,92097.60
2018-03-23T05:12:05.943Z,92097.09
2018-03-23T05:14:33.489Z,92105.17
2018-03-23T05:17:01.203Z,92099.06
2018-03-23T05:19:28.744Z,92110.41
2018-03-23T05:21:56.526Z,92105.02
2018-03-23T05:24:24.131Z,92107.85
2018-03-23T05:26:52.569Z,92112.25
2018-03-23T05:29:20.116Z,92104.18
2018-03-23T05:31:47.662Z,92099.25
2018-03-23T05:34:15.214Z,92096.69
2018-03-23T05:36:42.785Z,92105.98
2018-03-23T05:39:10.334Z,92099.58
2018-03-23T05:41:38.813Z,92102.98
2018-03-23T05:44:06.507Z,92104.52
2018-03-23T05:46:34.087Z,92100.47
2018-03-23T05:49:01.660Z,92105.13
2018-03-23T05:51:29.390Z,92102.45
2018-03-23T05:53:56.933Z,92105.63
2018-03-23T05:56:24.476Z,92109.50
2018-03-23T05:58:52.163Z,92095.38
2018-03-23T06:01:19.699Z,92101.72
2018-03-23T06:03:47.258Z,92105.42
2018-03-23T06:06:14.959Z,92113.34
2018-03-23T06:08:42.542Z,92122.25
2018-03-23T06:11:10.105Z,92120.16
2018-03-23T06:13:37.737Z,92111.09
2018-03-23T06:16:05.281Z,92112.37
2018-03-23T06:18:32.827Z,92113.25
2018-03-23T06:21:00.436Z,92110.16
2018-03-23T06:23:27.995Z,92111.49
2018-03-23T06:25:55.547Z,92113.28
2018-03-23T06:28:23.243Z,92110.28
2018-03-23T06:30:50.787Z,92102.66
2018-03-23T06:33:18.369Z,92109.55
2018-03-23T06:35:46.135Z,92100.13
2018-03-23T06:38:13.671Z,92106.44
2018-03-23T06:40:41.213Z,92106.35
2018-03-23T06:43:09.088Z,92107.04
2018-03-23T06:45:36.642Z,92092.00
2018-03-23T06:48:04.204Z,92089.85
2018-03-23T06:50:31.784Z,92094.23
2018-03-23T06:52:59.351Z,92092.33
2018-03-23T06:55:26.902Z,92095.50
2018-03-23T06:57:54.507Z,92098.50
2018-03-23T07:00:23.093Z,92100.27
2018-03-23T07:02:50.637Z,92097.47
2018-03-23T07:05:18.238Z,92102.30
2018-03-23T07:07:45.804Z,92112.12
2018-03-23T07:10:13.356Z,92106.36
2018-03-23T07:12:40.945Z,92111.52
2018-03-23T07:15:08.524Z,92114.73
2018-03-23T07:17:36.069Z,92109.34
2018-03-23T07:20:03.682Z,92110.22
2018-03-23T07:22:31.224Z,92106.69
2018-03-23T07:24:58.790Z,92109.22
2018-03-23T07:27:26.431Z,92108.48
2018-03-23T07:29:53.946Z,92106.65
2018-03-23T07:32:21.505Z,92099.71
2018-03-23T07:34:49.089Z,92096.52
2018-03-23T07:37:17.574Z,92098.19
2018-03-23T07:39:46.142Z,92091.55
2018-03-23T07:42:14.032Z,92096.87
2018-03-23T07:44:41.623Z,92096.30
2018-03-23T07:47:09.166Z,92085.58
2018-03-23T07:49:36.891Z,92074.22
2018-03-23T07:52:05.422Z,92077.34
2018-03-23T07:54:32.960Z,92083.88
2018-03-23T07:57:00.551Z,92085.97
2018-03-23T07:59:28.098Z,92079.94
2018-03-23T08:01:55.639Z,92087.44
2018-03-23T08:04:23.309Z,92082.47
2018-03-23T08:06:50.857Z,92087.26
2018-03-23T08:09:18.416Z,92081.53
2018-03-23T08:11:45.993Z,92087.20
2018-03-23T08:14:13.537Z,92087.86
2018-03-23T08:16:41.077Z,92087.48
2018-03-23T08:19:09.743Z,92079.46
2018-03-23T08:21:37.305Z,92081.36
2018-03-23T08:24:04.854Z,92074.09
2018-03-23T08:26:32.581Z,92077.70
2018-03-23T08:29:01.070Z,92077.30
2018-03-23T08:31:28.614Z,92070.73
2018-03-23T08:33:56.514Z,92065.84
2018-03-23T08:36:24.105Z,92063.54
2018-03-23T08:38:51.657Z,92071.02
2018-03-23T08:41:19.256Z,92069.74
2018-03-23T08:43:46.824Z,92071.18
2018-03-23T08:46:14.362Z,92075.61
2018-03-23T08:48:42.049Z,92067.27
2018-03-23T08:51:09.617Z,92067.90
2018-03-23T08:53:37.163Z,92061.00
2018-03-23T08:56:04.759Z,92065.21
2018-03-23T08:58:33.301Z,92063.86
2018-03-23T09:01:07.967Z,92061.73
2018-03-23T09:03:35.532Z,92062.01
